sensor_id;sensor_type;location;lat;lon;timestamp;P1;durP1;ratioP1;P2;durP2;ratioP2
15996;SDS011;8103;51.340;12.326;2022-12-07T00:01:42;11.55;;;7.13;;
15996;SDS011;8103;51.340;12.326;2022-12-07T00:04:11;11.35;;;8.05;;
15996;SDS011;8103;51.340;12.326;2022-12-07T00:06:46;9.57;;;7.13;;
15996;SDS011;8103;51.340;12.326;2022-12-07T00:09:18;11.48;;;7.95;;
15996;SDS011;8103;51.340;12.326;2022-12-07T00:11:46;11.82;;;8.10;;
15996;SDS011;8103;51.340;12.326;2022-12-07T00:14:16;11.45;;;7.97;;
15996;SDS011;8103;51.340;12.326;2022-12-07T00:16:43;12.82;;;8.00;;
15996;SDS011;8103;51.340;12.326;2022-12-07T00:19:12;11.73;;;8.32;;
15996;SDS011;8103;51.340;12.326;2022-12-07T00:21:40;13.18;;;8.23;;
15996;SDS011;8103;51.340;12.326;2022-12-07T00:24:07;11.85;;;8.38;;
15996;SDS011;8103;51.340;12.326;2022-12-07T00:26:38;11.63;;;7.57;;
15996;SDS011;8103;51.340;12.326;2022-12-07T00:29:11;13.48;;;8.27;;
15996;SDS011;8103;51.340;12.326;2022-12-07T00:31:42;11.27;;;8.40;;
15996;SDS011;8103;51.340;12.326;2022-12-07T00:34:12;12.60;;;8.20;;
15996;SDS011;8103;51.340;12.326;2022-12-07T00:36:44;12.27;;;8.32;;
15996;SDS011;8103;51.340;12.326;2022-12-07T00:39:11;12.60;;;8.35;;
15996;SDS011;8103;51.340;12.326;2022-12-07T00:41:38;10.87;;;8.07;;
15996;SDS011;8103;51.340;12.326;2022-12-07T00:44:05;15.77;;;10.18;;
15996;SDS011;8103;51.340;12.326;2022-12-07T00:46:32;16.52;;;10.45;;
15996;SDS011;8103;51.340;12.326;2022-12-07T00:49:00;12.32;;;8.35;;
15996;SDS011;8103;51.340;12.326;2022-12-07T00:51:28;11.65;;;8.57;;
15996;SDS011;8103;51.340;12.326;2022-12-07T00:53:54;16.00;;;10.38;;
15996;SDS011;8103;51.340;12.326;2022-12-07T00:56:22;14.30;;;8.80;;
15996;SDS011;8103;51.340;12.326;2022-12-07T00:58:51;14.05;;;9.00;;
15996;SDS011;8103;51.340;12.326;2022-12-07T01:01:23;13.75;;;9.23;;
15996;SDS011;8103;51.340;12.326;2022-12-07T01:03:52;11.90;;;8.33;;
15996;SDS011;8103;51.340;12.326;2022-12-07T01:06:19;13.73;;;9.50;;
15996;SDS011;8103;51.340;12.326;2022-12-07T01:08:48;15.18;;;9.88;;
15996;SDS011;8103;51.340;12.326;2022-12-07T01:11:16;15.40;;;11.18;;
15996;SDS011;8103;51.340;12.326;2022-12-07T01:13:45;15.52;;;9.95;;
15996;SDS011;8103;51.340;12.326;2022-12-07T01:16:13;14.00;;;9.77;;
15996;SDS011;8103;51.340;12.326;2022-12-07T01:18:41;12.60;;;8.77;;
15996;SDS011;8103;51.340;12.326;2022-12-07T01:21:13;13.67;;;8.87;;
15996;SDS011;8103;51.340;12.326;2022-12-07T01:23:44;13.20;;;9.10;;
15996;SDS011;8103;51.340;12.326;2022-12-07T01:26:14;12.57;;;8.85;;
15996;SDS011;8103;51.340;12.326;2022-12-07T01:28:43;15.23;;;9.75;;
15996;SDS011;8103;51.340;12.326;2022-12-07T01:31:12;13.75;;;9.20;;
15996;SDS011;8103;51.340;12.326;2022-12-07T01:33:45;14.10;;;9.38;;
15996;SDS011;8103;51.340;12.326;2022-12-07T01:38:43;16.37;;;10.00;;
15996;SDS011;8103;51.340;12.326;2022-12-07T01:41:10;15.43;;;10.40;;
15996;SDS011;8103;51.340;12.326;2022-12-07T01:46:36;11.57;;;8.30;;
15996;SDS011;8103;51.340;12.326;2022-12-07T01:49:04;13.07;;;9.60;;
15996;SDS011;8103;51.340;12.326;2022-12-07T01:51:33;15.77;;;10.43;;
15996;SDS011;8103;51.340;12.326;2022-12-07T01:54:01;13.77;;;8.83;;
15996;SDS011;8103;51.340;12.326;2022-12-07T01:56:28;14.18;;;9.27;;
15996;SDS011;8103;51.340;12.326;2022-12-07T01:58:57;14.70;;;9.13;;
15996;SDS011;8103;51.340;12.326;2022-12-07T02:01:26;12.90;;;8.93;;
15996;SDS011;8103;51.340;12.326;2022-12-07T02:03:53;13.30;;;8.70;;
15996;SDS011;8103;51.340;12.326;2022-12-07T02:06:20;10.83;;;7.47;;
15996;SDS011;8103;51.340;12.326;2022-12-07T02:08:50;15.73;;;9.23;;
15996;SDS011;8103;51.340;12.326;2022-12-07T02:11:18;13.70;;;9.07;;
15996;SDS011;8103;51.340;12.326;2022-12-07T02:13:45;12.73;;;9.30;;
15996;SDS011;8103;51.340;12.326;2022-12-07T02:29:35;17.25;;;10.20;;
15996;SDS011;8103;51.340;12.326;2022-12-07T02:32:38;14.38;;;9.30;;
15996;SDS011;8103;51.340;12.326;2022-12-07T02:40:20;15.45;;;9.02;;
15996;SDS011;8103;51.340;12.326;2022-12-07T02:42:55;14.70;;;8.95;;
15996;SDS011;8103;51.340;12.326;2022-12-07T02:45:44;14.48;;;9.18;;
15996;SDS011;8103;51.340;12.326;2022-12-07T02:48:14;12.43;;;8.40;;
15996;SDS011;8103;51.340;12.326;2022-12-07T02:50:50;13.33;;;8.63;;
15996;SDS011;8103;51.340;12.326;2022-12-07T02:53:38;12.65;;;8.15;;
15996;SDS011;8103;51.340;12.326;2022-12-07T02:59:09;14.37;;;9.07;;
15996;SDS011;8103;51.340;12.326;2022-12-07T03:02:06;12.82;;;8.32;;
15996;SDS011;8103;51.340;12.326;2022-12-07T03:07:54;11.23;;;7.97;;
15996;SDS011;8103;51.340;12.326;2022-12-07T03:21:37;10.30;;;6.50;;
15996;SDS011;8103;51.340;12.326;2022-12-07T03:24:17;9.23;;;5.97;;
15996;SDS011;8103;51.340;12.326;2022-12-07T03:26:58;10.63;;;7.50;;
15996;SDS011;8103;51.340;12.326;2022-12-07T03:29:32;9.93;;;6.82;;
15996;SDS011;8103;51.340;12.326;2022-12-07T03:34:39;9.45;;;6.18;;
15996;SDS011;8103;51.340;12.326;2022-12-07T03:37:24;13.27;;;6.60;;
15996;SDS011;8103;51.340;12.326;2022-12-07T03:42:35;9.50;;;6.60;;
15996;SDS011;8103;51.340;12.326;2022-12-07T03:45:02;11.57;;;7.20;;
15996;SDS011;8103;51.340;12.326;2022-12-07T03:47:35;9.67;;;6.03;;
15996;SDS011;8103;51.340;12.326;2022-12-07T03:50:29;9.25;;;6.07;;
15996;SDS011;8103;51.340;12.326;2022-12-07T03:53:04;8.77;;;6.80;;
15996;SDS011;8103;51.340;12.326;2022-12-07T03:55:39;8.30;;;6.43;;
15996;SDS011;8103;51.340;12.326;2022-12-07T03:58:11;10.07;;;6.95;;
15996;SDS011;8103;51.340;12.326;2022-12-07T04:00:42;10.25;;;7.25;;
15996;SDS011;8103;51.340;12.326;2022-12-07T04:03:10;8.07;;;6.47;;
15996;SDS011;8103;51.340;12.326;2022-12-07T04:05:37;11.02;;;7.13;;
15996;SDS011;8103;51.340;12.326;2022-12-07T04:08:05;11.43;;;7.17;;
15996;SDS011;8103;51.340;12.326;2022-12-07T04:10:32;7.88;;;5.45;;
15996;SDS011;8103;51.340;12.326;2022-12-07T04:12:59;10.32;;;6.57;;
15996;SDS011;8103;51.340;12.326;2022-12-07T04:15:26;10.48;;;6.88;;
15996;SDS011;8103;51.340;12.326;2022-12-07T04:17:53;9.50;;;6.30;;
15996;SDS011;8103;51.340;12.326;2022-12-07T04:20:21;9.15;;;6.32;;
15996;SDS011;8103;51.340;12.326;2022-12-07T04:22:48;8.00;;;5.57;;
15996;SDS011;8103;51.340;12.326;2022-12-07T04:25:15;10.43;;;6.82;;
15996;SDS011;8103;51.340;12.326;2022-12-07T04:27:41;9.77;;;5.88;;
15996;SDS011;8103;51.340;12.326;2022-12-07T04:30:08;11.32;;;6.78;;
15996;SDS011;8103;51.340;12.326;2022-12-07T04:32:35;7.10;;;5.35;;
15996;SDS011;8103;51.340;12.326;2022-12-07T04:35:03;9.82;;;6.38;;
15996;SDS011;8103;51.340;12.326;2022-12-07T04:37:30;9.38;;;7.10;;
15996;SDS011;8103;51.340;12.326;2022-12-07T04:39:57;8.75;;;6.03;;
15996;SDS011;8103;51.340;12.326;2022-12-07T04:42:23;8.63;;;6.00;;
15996;SDS011;8103;51.340;12.326;2022-12-07T04:44:50;11.00;;;7.45;;
15996;SDS011;8103;51.340;12.326;2022-12-07T04:47:17;10.43;;;6.80;;
15996;SDS011;8103;51.340;12.326;2022-12-07T04:49:44;9.93;;;6.30;;
15996;SDS011;8103;51.340;12.326;2022-12-07T04:52:11;10.10;;;6.82;;
15996;SDS011;8103;51.340;12.326;2022-12-07T04:54:37;9.77;;;6.55;;
15996;SDS011;8103;51.340;12.326;2022-12-07T04:57:04;8.65;;;5.90;;
15996;SDS011;8103;51.340;12.326;2022-12-07T04:59:31;14.55;;;6.32;;
15996;SDS011;8103;51.340;12.326;2022-12-07T05:01:58;8.02;;;5.32;;
15996;SDS011;8103;51.340;12.326;2022-12-07T05:04:25;11.05;;;6.10;;
15996;SDS011;8103;51.340;12.326;2022-12-07T05:06:52;11.13;;;6.18;;
15996;SDS011;8103;51.340;12.326;2022-12-07T05:09:18;8.30;;;7.13;;
15996;SDS011;8103;51.340;12.326;2022-12-07T05:11:45;9.20;;;6.65;;
15996;SDS011;8103;51.340;12.326;2022-12-07T05:14:14;8.70;;;6.33;;
15996;SDS011;8103;51.340;12.326;2022-12-07T05:16:47;8.43;;;6.15;;
15996;SDS011;8103;51.340;12.326;2022-12-07T05:19:17;12.38;;;7.72;;
15996;SDS011;8103;51.340;12.326;2022-12-07T05:21:45;9.43;;;6.07;;
15996;SDS011;8103;51.340;12.326;2022-12-07T05:24:12;9.57;;;7.40;;
15996;SDS011;8103;51.340;12.326;2022-12-07T05:26:40;9.07;;;6.63;;
15996;SDS011;8103;51.340;12.326;2022-12-07T05:29:10;12.73;;;5.95;;
15996;SDS011;8103;51.340;12.326;2022-12-07T05:31:41;8.90;;;6.68;;
15996;SDS011;8103;51.340;12.326;2022-12-07T05:34:09;11.15;;;7.40;;
15996;SDS011;8103;51.340;12.326;2022-12-07T05:36:36;9.88;;;7.13;;
15996;SDS011;8103;51.340;12.326;2022-12-07T05:39:03;9.73;;;7.10;;
15996;SDS011;8103;51.340;12.326;2022-12-07T05:41:30;10.52;;;7.20;;
15996;SDS011;8103;51.340;12.326;2022-12-07T05:44:15;10.68;;;8.00;;
15996;SDS011;8103;51.340;12.326;2022-12-07T05:46:42;9.13;;;7.43;;
15996;SDS011;8103;51.340;12.326;2022-12-07T05:49:09;9.23;;;7.00;;
15996;SDS011;8103;51.340;12.326;2022-12-07T05:51:36;9.10;;;7.25;;
15996;SDS011;8103;51.340;12.326;2022-12-07T05:54:03;10.93;;;7.63;;
15996;SDS011;8103;51.340;12.326;2022-12-07T05:56:30;14.77;;;8.82;;
15996;SDS011;8103;51.340;12.326;2022-12-07T05:58:57;11.43;;;7.40;;
15996;SDS011;8103;51.340;12.326;2022-12-07T06:01:42;10.45;;;7.53;;
15996;SDS011;8103;51.340;12.326;2022-12-07T06:04:09;10.85;;;7.45;;
15996;SDS011;8103;51.340;12.326;2022-12-07T06:06:36;10.85;;;7.40;;
15996;SDS011;8103;51.340;12.326;2022-12-07T06:09:03;14.57;;;8.07;;
15996;SDS011;8103;51.340;12.326;2022-12-07T06:11:30;12.77;;;8.15;;
15996;SDS011;8103;51.340;12.326;2022-12-07T06:14:16;14.85;;;8.48;;
15996;SDS011;8103;51.340;12.326;2022-12-07T06:16:43;13.00;;;8.73;;
15996;SDS011;8103;51.340;12.326;2022-12-07T06:19:10;13.10;;;9.00;;
15996;SDS011;8103;51.340;12.326;2022-12-07T06:21:37;11.52;;;9.13;;
15996;SDS011;8103;51.340;12.326;2022-12-07T06:24:06;12.85;;;10.18;;
15996;SDS011;8103;51.340;12.326;2022-12-07T06:26:33;13.57;;;9.98;;
15996;SDS011;8103;51.340;12.326;2022-12-07T06:29:00;11.80;;;9.15;;
15996;SDS011;8103;51.340;12.326;2022-12-07T06:31:27;12.60;;;9.40;;
15996;SDS011;8103;51.340;12.326;2022-12-07T06:34:01;13.50;;;9.02;;
15996;SDS011;8103;51.340;12.326;2022-12-07T06:36:29;13.32;;;9.63;;
15996;SDS011;8103;51.340;12.326;2022-12-07T06:38:56;15.10;;;10.38;;
15996;SDS011;8103;51.340;12.326;2022-12-07T06:41:23;13.10;;;10.27;;
15996;SDS011;8103;51.340;12.326;2022-12-07T06:43:50;14.57;;;9.38;;
15996;SDS011;8103;51.340;12.326;2022-12-07T06:46:21;13.98;;;9.70;;
15996;SDS011;8103;51.340;12.326;2022-12-07T06:48:48;15.88;;;11.05;;
15996;SDS011;8103;51.340;12.326;2022-12-07T06:51:15;16.45;;;11.07;;
15996;SDS011;8103;51.340;12.326;2022-12-07T06:53:42;15.65;;;11.48;;
15996;SDS011;8103;51.340;12.326;2022-12-07T06:56:10;13.70;;;10.77;;
15996;SDS011;8103;51.340;12.326;2022-12-07T06:58:36;16.55;;;11.40;;
15996;SDS011;8103;51.340;12.326;2022-12-07T07:01:08;18.35;;;11.30;;
15996;SDS011;8103;51.340;12.326;2022-12-07T07:03:39;16.60;;;9.98;;
15996;SDS011;8103;51.340;12.326;2022-12-07T07:06:06;18.58;;;12.13;;
15996;SDS011;8103;51.340;12.326;2022-12-07T07:08:34;17.02;;;11.48;;
15996;SDS011;8103;51.340;12.326;2022-12-07T07:11:01;16.88;;;12.35;;
15996;SDS011;8103;51.340;12.326;2022-12-07T07:13:28;17.55;;;11.60;;
15996;SDS011;8103;51.340;12.326;2022-12-07T07:15:55;14.45;;;10.15;;
15996;SDS011;8103;51.340;12.326;2022-12-07T07:18:22;15.77;;;9.40;;
15996;SDS011;8103;51.340;12.326;2022-12-07T07:20:50;14.77;;;10.15;;
15996;SDS011;8103;51.340;12.326;2022-12-07T07:23:17;13.32;;;9.50;;
15996;SDS011;8103;51.340;12.326;2022-12-07T07:25:44;12.70;;;8.48;;
15996;SDS011;8103;51.340;12.326;2022-12-07T07:28:11;14.88;;;9.95;;
15996;SDS011;8103;51.340;12.326;2022-12-07T07:30:38;13.27;;;9.65;;
15996;SDS011;8103;51.340;12.326;2022-12-07T07:33:05;14.02;;;9.80;;
15996;SDS011;8103;51.340;12.326;2022-12-07T07:35:33;13.45;;;10.00;;
15996;SDS011;8103;51.340;12.326;2022-12-07T07:38:00;12.45;;;8.85;;
15996;SDS011;8103;51.340;12.326;2022-12-07T07:40:28;12.13;;;10.05;;
15996;SDS011;8103;51.340;12.326;2022-12-07T07:42:55;15.07;;;10.60;;
15996;SDS011;8103;51.340;12.326;2022-12-07T07:45:23;14.50;;;10.95;;
15996;SDS011;8103;51.340;12.326;2022-12-07T07:47:51;12.93;;;10.30;;
15996;SDS011;8103;51.340;12.326;2022-12-07T07:50:18;13.23;;;9.63;;
15996;SDS011;8103;51.340;12.326;2022-12-07T07:52:46;14.10;;;10.45;;
15996;SDS011;8103;51.340;12.326;2022-12-07T07:55:12;14.52;;;10.32;;
15996;SDS011;8103;51.340;12.326;2022-12-07T07:57:40;13.73;;;10.48;;
15996;SDS011;8103;51.340;12.326;2022-12-07T08:00:08;13.63;;;9.65;;
15996;SDS011;8103;51.340;12.326;2022-12-07T08:02:40;12.18;;;9.32;;
15996;SDS011;8103;51.340;12.326;2022-12-07T08:05:10;17.50;;;10.68;;
15996;SDS011;8103;51.340;12.326;2022-12-07T08:07:38;11.20;;;9.15;;
15996;SDS011;8103;51.340;12.326;2022-12-07T08:10:05;11.55;;;9.25;;
15996;SDS011;8103;51.340;12.326;2022-12-07T08:12:36;12.13;;;9.38;;
15996;SDS011;8103;51.340;12.326;2022-12-07T08:15:26;14.38;;;10.00;;
15996;SDS011;8103;51.340;12.326;2022-12-07T08:17:54;13.43;;;9.77;;
15996;SDS011;8103;51.340;12.326;2022-12-07T08:20:21;12.35;;;8.85;;
15996;SDS011;8103;51.340;12.326;2022-12-07T08:22:48;11.70;;;8.20;;
15996;SDS011;8103;51.340;12.326;2022-12-07T08:25:14;17.77;;;9.27;;
15996;SDS011;8103;51.340;12.326;2022-12-07T08:27:41;13.10;;;8.25;;
15996;SDS011;8103;51.340;12.326;2022-12-07T08:30:08;14.60;;;8.52;;
15996;SDS011;8103;51.340;12.326;2022-12-07T08:32:35;14.63;;;9.20;;
15996;SDS011;8103;51.340;12.326;2022-12-07T08:35:02;14.05;;;8.80;;
15996;SDS011;8103;51.340;12.326;2022-12-07T08:37:29;14.25;;;8.77;;
15996;SDS011;8103;51.340;12.326;2022-12-07T08:39:57;14.45;;;8.18;;
15996;SDS011;8103;51.340;12.326;2022-12-07T08:42:24;12.23;;;8.40;;
15996;SDS011;8103;51.340;12.326;2022-12-07T08:44:56;11.63;;;7.55;;
15996;SDS011;8103;51.340;12.326;2022-12-07T08:47:23;8.63;;;6.25;;
15996;SDS011;8103;51.340;12.326;2022-12-07T08:49:51;10.05;;;7.55;;
15996;SDS011;8103;51.340;12.326;2022-12-07T08:52:19;17.77;;;7.78;;
15996;SDS011;8103;51.340;12.326;2022-12-07T08:54:46;10.40;;;6.90;;
15996;SDS011;8103;51.340;12.326;2022-12-07T08:57:14;12.35;;;7.82;;
15996;SDS011;8103;51.340;12.326;2022-12-07T08:59:41;11.45;;;6.82;;
15996;SDS011;8103;51.340;12.326;2022-12-07T09:02:08;14.98;;;8.27;;
15996;SDS011;8103;51.340;12.326;2022-12-07T09:04:34;20.10;;;8.25;;
15996;SDS011;8103;51.340;12.326;2022-12-07T09:07:01;12.38;;;7.95;;
15996;SDS011;8103;51.340;12.326;2022-12-07T09:09:28;13.40;;;8.20;;
15996;SDS011;8103;51.340;12.326;2022-12-07T09:11:55;9.73;;;7.03;;
15996;SDS011;8103;51.340;12.326;2022-12-07T09:14:22;11.18;;;8.57;;
15996;SDS011;8103;51.340;12.326;2022-12-07T09:16:49;12.68;;;8.68;;
15996;SDS011;8103;51.340;12.326;2022-12-07T09:19:16;9.90;;;6.72;;
15996;SDS011;8103;51.340;12.326;2022-12-07T09:21:43;11.40;;;7.70;;
15996;SDS011;8103;51.340;12.326;2022-12-07T09:24:11;11.13;;;7.63;;
15996;SDS011;8103;51.340;12.326;2022-12-07T09:26:38;11.85;;;7.22;;
15996;SDS011;8103;51.340;12.326;2022-12-07T09:29:06;16.63;;;8.50;;
15996;SDS011;8103;51.340;12.326;2022-12-07T09:31:35;10.90;;;7.97;;
15996;SDS011;8103;51.340;12.326;2022-12-07T09:34:02;11.82;;;8.35;;
15996;SDS011;8103;51.340;12.326;2022-12-07T09:36:32;17.00;;;9.02;;
15996;SDS011;8103;51.340;12.326;2022-12-07T09:38:59;13.50;;;8.85;;
15996;SDS011;8103;51.340;12.326;2022-12-07T09:41:27;14.80;;;9.25;;
15996;SDS011;8103;51.340;12.326;2022-12-07T09:43:58;13.35;;;8.63;;
15996;SDS011;8103;51.340;12.326;2022-12-07T09:46:30;11.80;;;9.75;;
15996;SDS011;8103;51.340;12.326;2022-12-07T09:49:01;14.95;;;9.93;;
15996;SDS011;8103;51.340;12.326;2022-12-07T09:51:28;13.35;;;9.63;;
15996;SDS011;8103;51.340;12.326;2022-12-07T09:53:56;14.30;;;8.50;;
15996;SDS011;8103;51.340;12.326;2022-12-07T09:56:24;12.85;;;7.93;;
15996;SDS011;8103;51.340;12.326;2022-12-07T09:58:54;15.65;;;8.13;;
15996;SDS011;8103;51.340;12.326;2022-12-07T10:01:28;11.13;;;8.00;;
15996;SDS011;8103;51.340;12.326;2022-12-07T10:04:12;14.70;;;8.88;;
15996;SDS011;8103;51.340;12.326;2022-12-07T10:06:41;14.70;;;8.50;;
15996;SDS011;8103;51.340;12.326;2022-12-07T10:09:12;10.52;;;7.85;;
15996;SDS011;8103;51.340;12.326;2022-12-07T10:12:00;11.82;;;8.23;;
15996;SDS011;8103;51.340;12.326;2022-12-07T10:14:33;10.43;;;6.90;;
15996;SDS011;8103;51.340;12.326;2022-12-07T10:17:40;12.90;;;7.40;;
15996;SDS011;8103;51.340;12.326;2022-12-07T10:20:24;10.88;;;7.38;;
15996;SDS011;8103;51.340;12.326;2022-12-07T10:22:57;8.38;;;5.97;;
15996;SDS011;8103;51.340;12.326;2022-12-07T10:25:36;8.07;;;6.05;;
15996;SDS011;8103;51.340;12.326;2022-12-07T10:30:56;10.75;;;6.45;;
15996;SDS011;8103;51.340;12.326;2022-12-07T10:36:14;14.88;;;6.75;;
15996;SDS011;8103;51.340;12.326;2022-12-07T10:38:49;11.60;;;5.80;;
15996;SDS011;8103;51.340;12.326;2022-12-07T10:41:26;11.13;;;6.10;;
15996;SDS011;8103;51.340;12.326;2022-12-07T10:43:54;8.68;;;5.30;;
15996;SDS011;8103;51.340;12.326;2022-12-07T14:24:29;3.65;;;1.80;;
15996;SDS011;8103;51.340;12.326;2022-12-07T14:26:56;4.45;;;1.80;;
15996;SDS011;8103;51.340;12.326;2022-12-07T14:31:52;3.63;;;2.20;;
15996;SDS011;8103;51.340;12.326;2022-12-07T14:34:20;2.65;;;1.20;;
15996;SDS011;8103;51.340;12.326;2022-12-07T14:36:47;2.97;;;1.48;;
15996;SDS011;8103;51.340;12.326;2022-12-07T14:39:14;3.33;;;1.48;;
15996;SDS011;8103;51.340;12.326;2022-12-07T14:41:41;2.22;;;1.30;;
15996;SDS011;8103;51.340;12.326;2022-12-07T14:44:19;4.82;;;1.70;;
15996;SDS011;8103;51.340;12.326;2022-12-07T14:46:50;5.30;;;1.48;;
15996;SDS011;8103;51.340;12.326;2022-12-07T14:49:38;5.13;;;1.65;;
15996;SDS011;8103;51.340;12.326;2022-12-07T14:55:56;1.90;;;1.70;;
15996;SDS011;8103;51.340;12.326;2022-12-07T14:58:23;3.35;;;2.10;;
15996;SDS011;8103;51.340;12.326;2022-12-07T15:04:30;3.35;;;1.50;;
15996;SDS011;8103;51.340;12.326;2022-12-07T15:06:58;4.70;;;1.73;;
15996;SDS011;8103;51.340;12.326;2022-12-07T15:09:27;4.68;;;1.50;;
15996;SDS011;8103;51.340;12.326;2022-12-07T15:11:53;1.90;;;1.33;;
15996;SDS011;8103;51.340;12.326;2022-12-07T15:14:20;2.45;;;1.35;;
15996;SDS011;8103;51.340;12.326;2022-12-07T15:16:47;5.70;;;2.28;;
15996;SDS011;8103;51.340;12.326;2022-12-07T15:19:34;3.03;;;1.88;;
15996;SDS011;8103;51.340;12.326;2022-12-07T15:30:23;2.33;;;1.38;;
15996;SDS011;8103;51.340;12.326;2022-12-07T15:32:50;2.88;;;1.13;;
15996;SDS011;8103;51.340;12.326;2022-12-07T15:35:17;3.58;;;1.98;;
15996;SDS011;8103;51.340;12.326;2022-12-07T15:37:45;10.70;;;1.85;;
15996;SDS011;8103;51.340;12.326;2022-12-07T15:40:13;2.28;;;1.60;;
15996;SDS011;8103;51.340;12.326;2022-12-07T15:42:40;3.05;;;1.15;;
15996;SDS011;8103;51.340;12.326;2022-12-07T15:45:07;5.47;;;2.17;;
15996;SDS011;8103;51.340;12.326;2022-12-07T15:47:36;5.90;;;1.90;;
15996;SDS011;8103;51.340;12.326;2022-12-07T15:50:27;4.63;;;1.92;;
15996;SDS011;8103;51.340;12.326;2022-12-07T15:52:53;5.20;;;1.90;;
15996;SDS011;8103;51.340;12.326;2022-12-07T15:55:20;8.48;;;2.35;;
15996;SDS011;8103;51.340;12.326;2022-12-07T15:57:47;5.10;;;1.88;;
15996;SDS011;8103;51.340;12.326;2022-12-07T16:00:15;3.80;;;2.03;;
15996;SDS011;8103;51.340;12.326;2022-12-07T16:02:42;5.78;;;1.83;;
15996;SDS011;8103;51.340;12.326;2022-12-07T16:05:09;6.10;;;1.98;;
15996;SDS011;8103;51.340;12.326;2022-12-07T16:07:36;7.10;;;2.67;;
15996;SDS011;8103;51.340;12.326;2022-12-07T16:10:03;2.78;;;1.85;;
15996;SDS011;8103;51.340;12.326;2022-12-07T16:12:30;4.47;;;1.73;;
15996;SDS011;8103;51.340;12.326;2022-12-07T16:14:57;2.72;;;1.95;;
15996;SDS011;8103;51.340;12.326;2022-12-07T16:17:24;4.10;;;1.67;;
15996;SDS011;8103;51.340;12.326;2022-12-07T16:19:51;3.72;;;2.03;;
15996;SDS011;8103;51.340;12.326;2022-12-07T16:22:19;2.33;;;1.73;;
15996;SDS011;8103;51.340;12.326;2022-12-07T16:24:48;2.97;;;1.95;;
15996;SDS011;8103;51.340;12.326;2022-12-07T16:27:15;2.45;;;1.83;;
15996;SDS011;8103;51.340;12.326;2022-12-07T16:29:41;3.63;;;2.22;;
15996;SDS011;8103;51.340;12.326;2022-12-07T16:32:09;3.50;;;2.28;;
15996;SDS011;8103;51.340;12.326;2022-12-07T16:34:36;3.25;;;2.63;;
15996;SDS011;8103;51.340;12.326;2022-12-07T16:37:03;3.83;;;2.92;;
15996;SDS011;8103;51.340;12.326;2022-12-07T16:39:31;5.18;;;2.78;;
15996;SDS011;8103;51.340;12.326;2022-12-07T16:41:59;3.83;;;2.13;;
15996;SDS011;8103;51.340;12.326;2022-12-07T16:44:26;2.75;;;2.28;;
15996;SDS011;8103;51.340;12.326;2022-12-07T16:46:52;3.42;;;2.55;;
15996;SDS011;8103;51.340;12.326;2022-12-07T16:49:19;2.80;;;2.00;;
15996;SDS011;8103;51.340;12.326;2022-12-07T16:51:49;4.55;;;2.40;;
15996;SDS011;8103;51.340;12.326;2022-12-07T16:54:34;2.92;;;2.50;;
15996;SDS011;8103;51.340;12.326;2022-12-07T16:57:02;5.75;;;2.90;;
15996;SDS011;8103;51.340;12.326;2022-12-07T16:59:29;6.63;;;3.28;;
15996;SDS011;8103;51.340;12.326;2022-12-07T17:01:55;8.07;;;3.20;;
15996;SDS011;8103;51.340;12.326;2022-12-07T17:04:22;5.53;;;3.00;;
15996;SDS011;8103;51.340;12.326;2022-12-07T17:06:50;5.47;;;3.40;;
15996;SDS011;8103;51.340;12.326;2022-12-07T17:09:17;8.43;;;3.15;;
15996;SDS011;8103;51.340;12.326;2022-12-07T17:11:46;6.57;;;4.20;;
15996;SDS011;8103;51.340;12.326;2022-12-07T17:14:14;5.88;;;2.53;;
15996;SDS011;8103;51.340;12.326;2022-12-07T17:16:59;4.13;;;2.50;;
15996;SDS011;8103;51.340;12.326;2022-12-07T17:19:26;5.90;;;2.58;;
15996;SDS011;8103;51.340;12.326;2022-12-07T17:21:53;3.80;;;2.05;;
15996;SDS011;8103;51.340;12.326;2022-12-07T17:24:19;8.80;;;3.88;;
15996;SDS011;8103;51.340;12.326;2022-12-07T17:26:48;5.43;;;2.78;;
15996;SDS011;8103;51.340;12.326;2022-12-07T17:29:15;4.32;;;2.70;;
15996;SDS011;8103;51.340;12.326;2022-12-07T17:31:44;4.20;;;2.83;;
15996;SDS011;8103;51.340;12.326;2022-12-07T17:34:16;7.32;;;3.55;;
15996;SDS011;8103;51.340;12.326;2022-12-07T17:36:43;3.92;;;2.38;;
15996;SDS011;8103;51.340;12.326;2022-12-07T17:39:13;10.55;;;3.13;;
15996;SDS011;8103;51.340;12.326;2022-12-07T17:41:43;6.00;;;2.75;;
15996;SDS011;8103;51.340;12.326;2022-12-07T17:44:29;3.08;;;2.13;;
15996;SDS011;8103;51.340;12.326;2022-12-07T17:46:56;7.38;;;3.08;;
15996;SDS011;8103;51.340;12.326;2022-12-07T17:49:25;4.65;;;2.22;;
15996;SDS011;8103;51.340;12.326;2022-12-07T17:51:52;2.92;;;2.28;;
15996;SDS011;8103;51.340;12.326;2022-12-07T17:54:37;5.63;;;3.00;;
15996;SDS011;8103;51.340;12.326;2022-12-07T17:57:04;6.28;;;3.80;;
15996;SDS011;8103;51.340;12.326;2022-12-07T17:59:31;6.03;;;3.33;;
15996;SDS011;8103;51.340;12.326;2022-12-07T18:01:57;9.15;;;3.30;;
15996;SDS011;8103;51.340;12.326;2022-12-07T18:08:14;5.15;;;2.78;;
15996;SDS011;8103;51.340;12.326;2022-12-07T18:10:41;8.20;;;4.25;;
15996;SDS011;8103;51.340;12.326;2022-12-07T18:13:08;9.63;;;3.90;;
15996;SDS011;8103;51.340;12.326;2022-12-07T18:15:56;6.28;;;3.38;;
15996;SDS011;8103;51.340;12.326;2022-12-07T18:18:23;14.52;;;8.70;;
15996;SDS011;8103;51.340;12.326;2022-12-07T18:20:49;7.38;;;4.00;;
15996;SDS011;8103;51.340;12.326;2022-12-07T18:23:16;6.90;;;3.97;;
15996;SDS011;8103;51.340;12.326;2022-12-07T18:25:50;4.35;;;2.83;;
15996;SDS011;8103;51.340;12.326;2022-12-07T18:28:17;9.65;;;5.18;;
15996;SDS011;8103;51.340;12.326;2022-12-07T18:30:44;8.10;;;3.97;;
15996;SDS011;8103;51.340;12.326;2022-12-07T18:33:36;7.05;;;4.38;;
15996;SDS011;8103;51.340;12.326;2022-12-07T18:36:03;7.97;;;3.97;;
15996;SDS011;8103;51.340;12.326;2022-12-07T18:38:30;7.60;;;3.55;;
15996;SDS011;8103;51.340;12.326;2022-12-07T18:41:00;5.75;;;3.25;;
15996;SDS011;8103;51.340;12.326;2022-12-07T18:43:28;10.30;;;4.43;;
15996;SDS011;8103;51.340;12.326;2022-12-07T18:45:55;6.93;;;4.57;;
15996;SDS011;8103;51.340;12.326;2022-12-07T18:48:22;9.55;;;4.25;;
15996;SDS011;8103;51.340;12.326;2022-12-07T18:50:59;8.25;;;5.25;;
15996;SDS011;8103;51.340;12.326;2022-12-07T18:53:27;6.97;;;3.78;;
15996;SDS011;8103;51.340;12.326;2022-12-07T18:58:41;9.60;;;3.63;;
15996;SDS011;8103;51.340;12.326;2022-12-07T19:01:29;8.40;;;3.08;;
15996;SDS011;8103;51.340;12.326;2022-12-07T19:03:57;9.65;;;5.57;;
15996;SDS011;8103;51.340;12.326;2022-12-07T19:06:24;13.23;;;7.60;;
15996;SDS011;8103;51.340;12.326;2022-12-07T19:08:52;12.18;;;4.32;;
15996;SDS011;8103;51.340;12.326;2022-12-07T19:11:21;5.18;;;3.47;;
15996;SDS011;8103;51.340;12.326;2022-12-07T19:17:59;5.10;;;2.97;;
15996;SDS011;8103;51.340;12.326;2022-12-07T19:20:25;7.18;;;3.83;;
15996;SDS011;8103;51.340;12.326;2022-12-07T19:22:52;6.55;;;2.95;;
15996;SDS011;8103;51.340;12.326;2022-12-07T19:25:19;8.48;;;3.45;;
15996;SDS011;8103;51.340;12.326;2022-12-07T19:27:46;9.13;;;5.68;;
15996;SDS011;8103;51.340;12.326;2022-12-07T19:30:13;10.68;;;6.85;;
15996;SDS011;8103;51.340;12.326;2022-12-07T19:36:31;5.15;;;3.97;;
15996;SDS011;8103;51.340;12.326;2022-12-07T19:38:57;6.57;;;4.78;;
15996;SDS011;8103;51.340;12.326;2022-12-07T19:41:24;8.40;;;4.35;;
15996;SDS011;8103;51.340;12.326;2022-12-07T19:47:55;8.52;;;3.60;;
15996;SDS011;8103;51.340;12.326;2022-12-07T19:50:21;5.32;;;3.83;;
15996;SDS011;8103;51.340;12.326;2022-12-07T19:52:49;5.40;;;3.28;;
15996;SDS011;8103;51.340;12.326;2022-12-07T19:55:16;7.10;;;4.30;;
15996;SDS011;8103;51.340;12.326;2022-12-07T19:57:44;8.23;;;4.43;;
15996;SDS011;8103;51.340;12.326;2022-12-07T20:00:11;12.93;;;4.32;;